メインページ
METAR-TAF:

METAR-TAF

空港 :

チュニス, チュニジア

チュニス・カルタゴ国際空港

緯度: 36-50N, 経度: 010-14E, 海抜: 3m

現時点の気象観測

当レポートは37分前の15:00(UTC)に作成
北/北東の風 10kt
気温 35°C
湿度 27%
気圧 1014 hPa
視程10km以上
1,500メートル以下は雲なし、積乱雲なし

METAR: DTTA 251500Z 02010KT CAVOK 35/13 Q1014

時間: 16:37 (15:37 UTC)


TAF: 見つかりません

4,000以上の空港の気象観測と天気予報(METAR報とTAF報)

利用可能な観測所は地図上に黄色い丸と赤い丸で示す。

丸の上にカーソルを重ねると観測所名を参照できる。

次にクリックすると気象観測と天気予報を参照できる。

マップの切り替え:黒色「×」印の緑ボタンをクリックして拡大、「-」印の緑ボタンをクリックして縮小、緑色の三角印をクリックして隣りの地図に切り替え


METAR-TAF: